Friedrichsort, Germany

10:00 PM CEST on August 30, 2014 (GMT +0200)
Heikendorf Mitte | Change Station
CLOSE
Current Station
Personal Weather Station
Location: Heikendorf, SCHLESWIG-HOLSTEIN
Elevation: 95 ft
Nearby Weather Stations

Elev 95 ft 54.38 °N, 10.20 °E | Updated 3 seconds ago

Clear
Clear
57.9 °F
Feels Like 57.9 °F
N
0.0
Wind Variable Wind from West
Gusts 0.0 mph

Today
High -- | Low -- °F
--% Chance of Precip.
Yesterday
High -- | Low -- °F
Precip. -- in
6:22 AM 8:15 PM
Waxing Crescent, 24% visible
Pressure 29.89 in
Visibility -9999.0 miles
Clouds
Dew Point 58 °F
Humidity 99%
Rainfall 0.02 in
Snow Depth Not available.
UV 0.0 out of 12
Pollen Not available.
Air Quality Not available.
Flu Activity Not available.
METAR EDHK 301750Z 20010KT CAVOK 16/12 Q1012

More Conditions Fewer Conditions

Pressure 29.89 in
Visibility -9999.0 miles
Clouds
Dew Point 58 °F
Humidity 99%
Rainfall 0.02 in
Snow Depth Not available.
UV 0.0 out of 12
Pollen Not available.
Air Quality Not available.
Flu Activity Not available.
METAR EDHK 301750Z 20010KT CAVOK 16/12 Q1012

More Conditions Fewer Conditions

10-Day Weather Forecast

Almanac

Astronomy

Aug. 30, 2014 Rise Set
Actual Time 6:22 AM CEST 8:15 PM CEST
Civil Twilight 5:44 AM CEST 8:53 PM CEST
Nautical Twilight 4:57 AM CEST 9:40 PM CEST
Astronomical Twilight 4:02 AM CEST 10:35 PM CEST
Moon 11:42 AM CEST 9:49 PM CEST
Length of Visible Light 15h 08m
Length of Day
13h 53m
Tomorrow will be 4m 15s shorter.
Waxing Crescent, 24% of the Moon is Illuminated
Today
Waxing Crescent
Sep 2
First Quarter
Sep 8
Full
Sep 15
Last Quarter
Sep 24
New

Today's Extremes

Country Highs Country Lows

Community

WunderPhotos

Upload Photos

1,748,620 photos uploaded!

WunderBlogs® & News

Nearby

Snow Depth

Not available.

Earthquake Activity

City Distance Mag. Time & Date
No recent earthquake activity has been reported nearby.
Minimum magnitude displayed is 2.5.

Coastal Water Temperatures

Place Temperature
No Stations Reporting

Nearby Weather Stations